sensor_id;sensor_type;location;lat;lon;timestamp;temperature;humidity
16700;DHT22;8466;52.286;21.124;2023-06-24T00:00:13;18.90;99.90
16700;DHT22;8466;52.286;21.124;2023-06-24T00:02:43;18.80;99.90
16700;DHT22;8466;52.286;21.124;2023-06-24T00:05:13;18.90;99.90
16700;DHT22;8466;52.286;21.124;2023-06-24T00:07:41;18.80;99.90
16700;DHT22;8466;52.286;21.124;2023-06-24T00:10:14;18.80;99.90
16700;DHT22;8466;52.286;21.124;2023-06-24T00:12:45;18.70;99.90
16700;DHT22;8466;52.286;21.124;2023-06-24T00:15:14;18.70;99.90
16700;DHT22;8466;52.286;21.124;2023-06-24T00:17:43;18.70;99.90
16700;DHT22;8466;52.286;21.124;2023-06-24T00:20:11;18.70;99.90
16700;DHT22;8466;52.286;21.124;2023-06-24T00:22:42;18.70;99.90
16700;DHT22;8466;52.286;21.124;2023-06-24T00:25:11;18.70;99.90
16700;DHT22;8466;52.286;21.124;2023-06-24T00:27:42;18.70;99.90
16700;DHT22;8466;52.286;21.124;2023-06-24T00:30:11;18.70;99.90
16700;DHT22;8466;52.286;21.124;2023-06-24T00:32:40;18.70;99.90
16700;DHT22;8466;52.286;21.124;2023-06-24T00:35:10;18.70;99.90
16700;DHT22;8466;52.286;21.124;2023-06-24T00:37:39;18.60;99.90
16700;DHT22;8466;52.286;21.124;2023-06-24T00:40:09;18.60;99.90
16700;DHT22;8466;52.286;21.124;2023-06-24T00:42:45;18.70;99.90
16700;DHT22;8466;52.286;21.124;2023-06-24T00:45:14;18.60;99.90
16700;DHT22;8466;52.286;21.124;2023-06-24T00:47:43;18.60;99.90
16700;DHT22;8466;52.286;21.124;2023-06-24T00:50:12;18.60;99.90
16700;DHT22;8466;52.286;21.124;2023-06-24T00:52:41;18.60;99.90
16700;DHT22;8466;52.286;21.124;2023-06-24T00:55:11;18.60;99.90
16700;DHT22;8466;52.286;21.124;2023-06-24T00:57:40;18.60;99.90
16700;DHT22;8466;52.286;21.124;2023-06-24T01:00:12;18.60;99.90
16700;DHT22;8466;52.286;21.124;2023-06-24T01:02:44;18.60;99.90
16700;DHT22;8466;52.286;21.124;2023-06-24T01:05:13;18.60;99.90
16700;DHT22;8466;52.286;21.124;2023-06-24T01:07:42;18.60;99.90
16700;DHT22;8466;52.286;21.124;2023-06-24T01:10:11;18.60;99.90
16700;DHT22;8466;52.286;21.124;2023-06-24T01:12:41;18.60;99.90
16700;DHT22;8466;52.286;21.124;2023-06-24T01:15:12;18.60;99.90
16700;DHT22;8466;52.286;21.124;2023-06-24T01:17:48;18.50;99.90
16700;DHT22;8466;52.286;21.124;2023-06-24T01:20:25;18.50;99.90
16700;DHT22;8466;52.286;21.124;2023-06-24T01:23:40;18.50;99.90
16700;DHT22;8466;52.286;21.124;2023-06-24T01:26:32;18.40;99.90
16700;DHT22;8466;52.286;21.124;2023-06-24T01:29:37;18.40;99.90
16700;DHT22;8466;52.286;21.124;2023-06-24T01:32:16;18.30;99.90
16700;DHT22;8466;52.286;21.124;2023-06-24T01:34:53;18.30;99.90
16700;DHT22;8466;52.286;21.124;2023-06-24T01:37:28;18.20;99.90
16700;DHT22;8466;52.286;21.124;2023-06-24T01:40:01;18.20;99.90
16700;DHT22;8466;52.286;21.124;2023-06-24T01:42:37;18.30;99.90
16700;DHT22;8466;52.286;21.124;2023-06-24T01:45:08;18.20;99.90
16700;DHT22;8466;52.286;21.124;2023-06-24T01:47:41;18.20;99.90
16700;DHT22;8466;52.286;21.124;2023-06-24T01:50:12;18.20;99.90
16700;DHT22;8466;52.286;21.124;2023-06-24T01:52:43;18.20;99.90
16700;DHT22;8466;52.286;21.124;2023-06-24T01:55:16;18.20;99.90
16700;DHT22;8466;52.286;21.124;2023-06-24T01:57:48;18.10;99.90
16700;DHT22;8466;52.286;21.124;2023-06-24T02:00:18;18.10;99.90
16700;DHT22;8466;52.286;21.124;2023-06-24T02:02:53;18.00;99.90
16700;DHT22;8466;52.286;21.124;2023-06-24T02:05:24;17.90;99.90
16700;DHT22;8466;52.286;21.124;2023-06-24T02:07:54;17.80;99.90
16700;DHT22;8466;52.286;21.124;2023-06-24T02:10:24;17.70;99.90
16700;DHT22;8466;52.286;21.124;2023-06-24T02:12:53;17.70;99.90
16700;DHT22;8466;52.286;21.124;2023-06-24T02:15:23;17.60;99.90
16700;DHT22;8466;52.286;21.124;2023-06-24T02:17:53;17.50;99.90
16700;DHT22;8466;52.286;21.124;2023-06-24T02:20:26;17.40;99.90
16700;DHT22;8466;52.286;21.124;2023-06-24T02:22:57;17.40;99.90
16700;DHT22;8466;52.286;21.124;2023-06-24T02:25:26;17.40;99.90
16700;DHT22;8466;52.286;21.124;2023-06-24T02:27:56;17.40;99.90
16700;DHT22;8466;52.286;21.124;2023-06-24T02:30:25;17.50;99.90
16700;DHT22;8466;52.286;21.124;2023-06-24T02:32:55;17.60;99.90
16700;DHT22;8466;52.286;21.124;2023-06-24T02:35:24;17.60;99.90
16700;DHT22;8466;52.286;21.124;2023-06-24T02:37:53;17.60;99.90
16700;DHT22;8466;52.286;21.124;2023-06-24T02:40:21;17.60;99.90
16700;DHT22;8466;52.286;21.124;2023-06-24T02:42:50;17.70;99.90
16700;DHT22;8466;52.286;21.124;2023-06-24T02:45:19;17.70;99.90
16700;DHT22;8466;52.286;21.124;2023-06-24T02:47:49;17.70;99.90
16700;DHT22;8466;52.286;21.124;2023-06-24T02:50:21;17.80;99.90
16700;DHT22;8466;52.286;21.124;2023-06-24T02:52:50;17.80;99.90
16700;DHT22;8466;52.286;21.124;2023-06-24T02:55:20;17.80;99.90
16700;DHT22;8466;52.286;21.124;2023-06-24T02:57:49;17.80;99.90
16700;DHT22;8466;52.286;21.124;2023-06-24T03:00:18;17.80;99.90
16700;DHT22;8466;52.286;21.124;2023-06-24T03:02:49;17.80;99.90
16700;DHT22;8466;52.286;21.124;2023-06-24T03:05:19;17.90;99.90
16700;DHT22;8466;52.286;21.124;2023-06-24T03:07:52;17.90;99.90
16700;DHT22;8466;52.286;21.124;2023-06-24T03:10:23;17.90;99.90
16700;DHT22;8466;52.286;21.124;2023-06-24T03:12:52;17.90;99.90
16700;DHT22;8466;52.286;21.124;2023-06-24T03:15:21;18.00;99.90
16700;DHT22;8466;52.286;21.124;2023-06-24T03:17:53;18.00;99.90
16700;DHT22;8466;52.286;21.124;2023-06-24T03:20:24;18.00;99.90
16700;DHT22;8466;52.286;21.124;2023-06-24T03:22:53;18.10;99.90
16700;DHT22;8466;52.286;21.124;2023-06-24T03:25:23;18.10;99.90
16700;DHT22;8466;52.286;21.124;2023-06-24T03:27:51;18.10;99.90
16700;DHT22;8466;52.286;21.124;2023-06-24T03:30:20;18.10;99.90
16700;DHT22;8466;52.286;21.124;2023-06-24T03:32:49;18.10;99.90
16700;DHT22;8466;52.286;21.124;2023-06-24T03:35:18;18.10;99.90
16700;DHT22;8466;52.286;21.124;2023-06-24T03:37:48;18.20;99.90
16700;DHT22;8466;52.286;21.124;2023-06-24T03:40:17;18.20;99.90
16700;DHT22;8466;52.286;21.124;2023-06-24T03:42:45;18.20;99.90
16700;DHT22;8466;52.286;21.124;2023-06-24T03:45:14;18.30;99.90
16700;DHT22;8466;52.286;21.124;2023-06-24T03:47:43;18.40;99.90
16700;DHT22;8466;52.286;21.124;2023-06-24T03:50:11;18.50;99.90
16700;DHT22;8466;52.286;21.124;2023-06-24T03:52:40;18.70;99.90
16700;DHT22;8466;52.286;21.124;2023-06-24T03:55:10;18.80;99.90
16700;DHT22;8466;52.286;21.124;2023-06-24T03:57:39;19.00;99.90
16700;DHT22;8466;52.286;21.124;2023-06-24T04:00:09;19.20;99.90
16700;DHT22;8466;52.286;21.124;2023-06-24T04:02:43;19.50;99.90
16700;DHT22;8466;52.286;21.124;2023-06-24T04:05:12;19.70;99.90
16700;DHT22;8466;52.286;21.124;2023-06-24T04:07:41;19.90;99.90
16700;DHT22;8466;52.286;21.124;2023-06-24T04:10:16;20.00;99.90
16700;DHT22;8466;52.286;21.124;2023-06-24T04:12:45;20.20;99.90
16700;DHT22;8466;52.286;21.124;2023-06-24T04:15:14;20.20;99.90
16700;DHT22;8466;52.286;21.124;2023-06-24T04:17:43;20.30;99.90
16700;DHT22;8466;52.286;21.124;2023-06-24T04:20:12;20.30;99.90
16700;DHT22;8466;52.286;21.124;2023-06-24T04:22:41;20.30;99.90
16700;DHT22;8466;52.286;21.124;2023-06-24T04:25:10;20.30;99.90
16700;DHT22;8466;52.286;21.124;2023-06-24T04:27:40;20.30;99.90
16700;DHT22;8466;52.286;21.124;2023-06-24T04:30:10;20.20;99.90
16700;DHT22;8466;52.286;21.124;2023-06-24T04:32:39;20.10;99.90
16700;DHT22;8466;52.286;21.124;2023-06-24T04:35:08;20.10;99.90
16700;DHT22;8466;52.286;21.124;2023-06-24T04:37:37;20.10;99.90
16700;DHT22;8466;52.286;21.124;2023-06-24T04:40:06;20.10;99.90
16700;DHT22;8466;52.286;21.124;2023-06-24T04:42:35;20.40;99.90
16700;DHT22;8466;52.286;21.124;2023-06-24T04:45:06;21.30;99.90
16700;DHT22;8466;52.286;21.124;2023-06-24T04:47:35;23.00;99.90
16700;DHT22;8466;52.286;21.124;2023-06-24T04:50:04;23.60;99.90
16700;DHT22;8466;52.286;21.124;2023-06-24T04:52:33;23.50;99.90
16700;DHT22;8466;52.286;21.124;2023-06-24T04:55:02;23.00;99.90
16700;DHT22;8466;52.286;21.124;2023-06-24T04:57:32;22.60;99.90
16700;DHT22;8466;52.286;21.124;2023-06-24T05:00:01;22.20;99.90
16700;DHT22;8466;52.286;21.124;2023-06-24T05:02:33;21.90;99.90
16700;DHT22;8466;52.286;21.124;2023-06-24T05:05:02;21.70;99.90
16700;DHT22;8466;52.286;21.124;2023-06-24T05:07:31;21.60;99.90
16700;DHT22;8466;52.286;21.124;2023-06-24T05:10:00;21.60;99.90
16700;DHT22;8466;52.286;21.124;2023-06-24T05:12:28;21.60;99.90
16700;DHT22;8466;52.286;21.124;2023-06-24T05:14:57;21.60;99.90
16700;DHT22;8466;52.286;21.124;2023-06-24T05:17:26;21.50;99.90
16700;DHT22;8466;52.286;21.124;2023-06-24T05:19:56;21.50;99.90
16700;DHT22;8466;52.286;21.124;2023-06-24T05:22:25;21.50;99.90
16700;DHT22;8466;52.286;21.124;2023-06-24T05:24:54;21.60;99.90
16700;DHT22;8466;52.286;21.124;2023-06-24T05:27:23;21.60;99.90
16700;DHT22;8466;52.286;21.124;2023-06-24T05:29:51;21.80;99.90
16700;DHT22;8466;52.286;21.124;2023-06-24T05:32:20;22.00;99.90
16700;DHT22;8466;52.286;21.124;2023-06-24T05:34:49;22.20;99.90
16700;DHT22;8466;52.286;21.124;2023-06-24T05:37:19;22.30;99.90
16700;DHT22;8466;52.286;21.124;2023-06-24T05:39:48;22.40;99.90
16700;DHT22;8466;52.286;21.124;2023-06-24T05:42:16;22.50;99.90
16700;DHT22;8466;52.286;21.124;2023-06-24T05:44:45;22.50;99.90
16700;DHT22;8466;52.286;21.124;2023-06-24T05:47:14;22.70;99.90
16700;DHT22;8466;52.286;21.124;2023-06-24T05:49:42;22.70;99.90
16700;DHT22;8466;52.286;21.124;2023-06-24T05:52:12;22.80;99.90
16700;DHT22;8466;52.286;21.124;2023-06-24T05:54:42;23.00;99.90
16700;DHT22;8466;52.286;21.124;2023-06-24T05:57:11;23.20;99.90
16700;DHT22;8466;52.286;21.124;2023-06-24T05:59:39;23.30;99.90
16700;DHT22;8466;52.286;21.124;2023-06-24T06:02:08;23.50;99.90
16700;DHT22;8466;52.286;21.124;2023-06-24T06:04:38;23.40;99.90
16700;DHT22;8466;52.286;21.124;2023-06-24T06:07:07;23.30;99.90
16700;DHT22;8466;52.286;21.124;2023-06-24T06:09:36;23.20;99.90
16700;DHT22;8466;52.286;21.124;2023-06-24T06:12:07;23.10;99.90
16700;DHT22;8466;52.286;21.124;2023-06-24T06:14:36;23.00;99.90
16700;DHT22;8466;52.286;21.124;2023-06-24T06:17:05;23.00;99.90
16700;DHT22;8466;52.286;21.124;2023-06-24T06:19:34;23.00;99.90
16700;DHT22;8466;52.286;21.124;2023-06-24T06:22:03;23.00;99.90
16700;DHT22;8466;52.286;21.124;2023-06-24T06:24:32;23.00;99.90
16700;DHT22;8466;52.286;21.124;2023-06-24T06:27:01;23.10;99.90
16700;DHT22;8466;52.286;21.124;2023-06-24T06:29:31;23.20;99.90
16700;DHT22;8466;52.286;21.124;2023-06-24T06:31:59;23.20;99.90
16700;DHT22;8466;52.286;21.124;2023-06-24T06:34:28;23.20;99.90
16700;DHT22;8466;52.286;21.124;2023-06-24T06:36:57;23.20;99.90
16700;DHT22;8466;52.286;21.124;2023-06-24T06:39:26;23.00;99.90
16700;DHT22;8466;52.286;21.124;2023-06-24T06:41:56;23.00;99.90
16700;DHT22;8466;52.286;21.124;2023-06-24T06:44:25;23.10;99.90
16700;DHT22;8466;52.286;21.124;2023-06-24T06:46:56;23.10;99.90
16700;DHT22;8466;52.286;21.124;2023-06-24T06:49:25;23.20;99.90
16700;DHT22;8466;52.286;21.124;2023-06-24T06:51:55;23.30;99.90
16700;DHT22;8466;52.286;21.124;2023-06-24T06:54:25;23.40;99.90
16700;DHT22;8466;52.286;21.124;2023-06-24T07:04:35;23.60;99.90
16700;DHT22;8466;52.286;21.124;2023-06-24T07:07:05;23.80;99.90
16700;DHT22;8466;52.286;21.124;2023-06-24T07:09:34;23.80;99.90
16700;DHT22;8466;52.286;21.124;2023-06-24T07:12:03;23.80;99.90
16700;DHT22;8466;52.286;21.124;2023-06-24T07:14:32;23.80;99.90
16700;DHT22;8466;52.286;21.124;2023-06-24T07:17:07;23.80;99.90
16700;DHT22;8466;52.286;21.124;2023-06-24T07:19:37;23.80;99.90
16700;DHT22;8466;52.286;21.124;2023-06-24T07:22:06;23.80;99.90
16700;DHT22;8466;52.286;21.124;2023-06-24T07:24:38;23.90;99.90
16700;DHT22;8466;52.286;21.124;2023-06-24T07:27:07;24.00;99.90
16700;DHT22;8466;52.286;21.124;2023-06-24T07:29:36;24.10;99.90
16700;DHT22;8466;52.286;21.124;2023-06-24T07:32:10;24.30;99.90
16700;DHT22;8466;52.286;21.124;2023-06-24T07:34:43;24.50;99.90
16700;DHT22;8466;52.286;21.124;2023-06-24T07:37:15;24.70;99.90
16700;DHT22;8466;52.286;21.124;2023-06-24T07:39:51;24.70;99.90
16700;DHT22;8466;52.286;21.124;2023-06-24T07:42:20;24.80;99.90
16700;DHT22;8466;52.286;21.124;2023-06-24T07:44:48;24.80;99.90
16700;DHT22;8466;52.286;21.124;2023-06-24T07:47:17;24.80;99.90
16700;DHT22;8466;52.286;21.124;2023-06-24T07:49:48;24.80;99.90
16700;DHT22;8466;52.286;21.124;2023-06-24T07:52:17;24.70;99.90
16700;DHT22;8466;52.286;21.124;2023-06-24T07:54:46;24.80;99.90
16700;DHT22;8466;52.286;21.124;2023-06-24T07:57:15;24.80;99.90
16700;DHT22;8466;52.286;21.124;2023-06-24T07:59:44;24.80;99.90
16700;DHT22;8466;52.286;21.124;2023-06-24T08:02:13;24.70;99.90
16700;DHT22;8466;52.286;21.124;2023-06-24T08:04:41;24.70;99.90
16700;DHT22;8466;52.286;21.124;2023-06-24T08:07:12;24.60;99.90
16700;DHT22;8466;52.286;21.124;2023-06-24T08:09:42;24.60;99.80
16700;DHT22;8466;52.286;21.124;2023-06-24T08:12:11;24.60;99.90
16700;DHT22;8466;52.286;21.124;2023-06-24T08:14:40;24.50;99.90
16700;DHT22;8466;52.286;21.124;2023-06-24T08:17:09;24.50;99.20
16700;DHT22;8466;52.286;21.124;2023-06-24T08:19:38;24.50;98.70
16700;DHT22;8466;52.286;21.124;2023-06-24T08:22:06;24.60;99.00
16700;DHT22;8466;52.286;21.124;2023-06-24T08:24:40;24.70;98.60
16700;DHT22;8466;52.286;21.124;2023-06-24T08:27:08;24.80;98.20
16700;DHT22;8466;52.286;21.124;2023-06-24T08:29:38;24.90;97.10
16700;DHT22;8466;52.286;21.124;2023-06-24T08:32:07;25.00;96.70
16700;DHT22;8466;52.286;21.124;2023-06-24T08:34:35;25.10;95.80
16700;DHT22;8466;52.286;21.124;2023-06-24T08:37:04;25.10;95.00
16700;DHT22;8466;52.286;21.124;2023-06-24T08:39:33;25.20;94.40
16700;DHT22;8466;52.286;21.124;2023-06-24T08:42:04;25.20;94.70
16700;DHT22;8466;52.286;21.124;2023-06-24T08:44:33;25.30;94.70
16700;DHT22;8466;52.286;21.124;2023-06-24T08:47:02;25.20;94.10
16700;DHT22;8466;52.286;21.124;2023-06-24T08:49:33;25.60;93.50
16700;DHT22;8466;52.286;21.124;2023-06-24T08:52:06;25.80;93.60
16700;DHT22;8466;52.286;21.124;2023-06-24T08:54:36;26.00;91.60
16700;DHT22;8466;52.286;21.124;2023-06-24T08:57:07;26.10;91.60
16700;DHT22;8466;52.286;21.124;2023-06-24T08:59:42;26.20;91.70
16700;DHT22;8466;52.286;21.124;2023-06-24T09:02:11;26.50;91.40
16700;DHT22;8466;52.286;21.124;2023-06-24T09:04:41;26.70;90.30
16700;DHT22;8466;52.286;21.124;2023-06-24T09:07:10;26.80;90.00
16700;DHT22;8466;52.286;21.124;2023-06-24T09:09:42;26.80;88.90
16700;DHT22;8466;52.286;21.124;2023-06-24T09:12:14;26.80;89.60
16700;DHT22;8466;52.286;21.124;2023-06-24T09:14:48;26.90;87.00
16700;DHT22;8466;52.286;21.124;2023-06-24T09:17:18;27.00;87.50
16700;DHT22;8466;52.286;21.124;2023-06-24T09:19:50;27.10;88.60
16700;DHT22;8466;52.286;21.124;2023-06-24T09:22:19;27.20;88.10
16700;DHT22;8466;52.286;21.124;2023-06-24T09:24:48;27.20;88.40
16700;DHT22;8466;52.286;21.124;2023-06-24T09:27:18;27.20;88.30
16700;DHT22;8466;52.286;21.124;2023-06-24T09:29:49;27.10;87.30
16700;DHT22;8466;52.286;21.124;2023-06-24T09:32:18;27.10;87.60
16700;DHT22;8466;52.286;21.124;2023-06-24T09:34:47;27.10;87.90
16700;DHT22;8466;52.286;21.124;2023-06-24T09:37:21;26.90;88.30
16700;DHT22;8466;52.286;21.124;2023-06-24T09:39:51;26.80;88.60
16700;DHT22;8466;52.286;21.124;2023-06-24T09:42:22;26.80;89.60
16700;DHT22;8466;52.286;21.124;2023-06-24T09:44:54;27.00;90.10
16700;DHT22;8466;52.286;21.124;2023-06-24T09:47:23;27.20;89.30
16700;DHT22;8466;52.286;21.124;2023-06-24T09:49:54;27.20;89.30
16700;DHT22;8466;52.286;21.124;2023-06-24T09:52:23;27.30;88.60
16700;DHT22;8466;52.286;21.124;2023-06-24T09:54:55;27.30;89.30
16700;DHT22;8466;52.286;21.124;2023-06-24T09:57:29;27.40;88.80
16700;DHT22;8466;52.286;21.124;2023-06-24T10:00:00;27.70;89.00
16700;DHT22;8466;52.286;21.124;2023-06-24T10:02:29;27.80;85.80
16700;DHT22;8466;52.286;21.124;2023-06-24T10:04:59;27.80;84.70
16700;DHT22;8466;52.286;21.124;2023-06-24T10:07:28;27.70;84.90
16700;DHT22;8466;52.286;21.124;2023-06-24T10:09:58;27.70;86.40
16700;DHT22;8466;52.286;21.124;2023-06-24T10:12:29;27.60;85.10
16700;DHT22;8466;52.286;21.124;2023-06-24T10:15:00;27.50;85.30
16700;DHT22;8466;52.286;21.124;2023-06-24T10:17:30;27.40;84.90
16700;DHT22;8466;52.286;21.124;2023-06-24T10:20:03;27.50;85.70
16700;DHT22;8466;52.286;21.124;2023-06-24T10:22:33;27.70;84.10
16700;DHT22;8466;52.286;21.124;2023-06-24T10:25:06;27.80;84.00
16700;DHT22;8466;52.286;21.124;2023-06-24T10:27:42;27.80;83.20
16700;DHT22;8466;52.286;21.124;2023-06-24T10:30:20;27.70;83.30
16700;DHT22;8466;52.286;21.124;2023-06-24T10:32:52;27.70;83.90
16700;DHT22;8466;52.286;21.124;2023-06-24T10:35:23;27.70;81.40
16700;DHT22;8466;52.286;21.124;2023-06-24T10:37:59;27.70;80.30
16700;DHT22;8466;52.286;21.124;2023-06-24T10:40:36;27.70;78.00
16700;DHT22;8466;52.286;21.124;2023-06-24T10:43:34;27.40;79.90
16700;DHT22;8466;52.286;21.124;2023-06-24T10:46:14;27.60;81.20
16700;DHT22;8466;52.286;21.124;2023-06-24T10:48:44;27.60;80.60
16700;DHT22;8466;52.286;21.124;2023-06-24T10:51:13;27.60;80.00
16700;DHT22;8466;52.286;21.124;2023-06-24T10:53:43;27.80;80.00
16700;DHT22;8466;52.286;21.124;2023-06-24T10:56:12;28.00;80.30
16700;DHT22;8466;52.286;21.124;2023-06-24T10:58:55;28.20;81.70
16700;DHT22;8466;52.286;21.124;2023-06-24T11:01:24;28.40;79.50
16700;DHT22;8466;52.286;21.124;2023-06-24T11:03:53;28.60;82.00
16700;DHT22;8466;52.286;21.124;2023-06-24T11:06:22;28.80;78.80
16700;DHT22;8466;52.286;21.124;2023-06-24T11:08:51;28.70;78.80
16700;DHT22;8466;52.286;21.124;2023-06-24T11:11:20;28.40;77.60
16700;DHT22;8466;52.286;21.124;2023-06-24T11:13:51;28.10;79.10
16700;DHT22;8466;52.286;21.124;2023-06-24T11:16:21;28.00;82.40
16700;DHT22;8466;52.286;21.124;2023-06-24T11:18:50;28.00;80.40
16700;DHT22;8466;52.286;21.124;2023-06-24T11:21:19;27.80;81.20
16700;DHT22;8466;52.286;21.124;2023-06-24T11:23:48;27.70;83.50
16700;DHT22;8466;52.286;21.124;2023-06-24T11:26:18;27.60;83.70
16700;DHT22;8466;52.286;21.124;2023-06-24T11:28:47;27.40;83.40
16700;DHT22;8466;52.286;21.124;2023-06-24T11:31:24;27.30;84.50
16700;DHT22;8466;52.286;21.124;2023-06-24T11:33:53;27.00;86.20
16700;DHT22;8466;52.286;21.124;2023-06-24T11:36:23;26.80;87.60
16700;DHT22;8466;52.286;21.124;2023-06-24T11:38:53;26.60;87.80
16700;DHT22;8466;52.286;21.124;2023-06-24T11:41:22;26.40;88.30
16700;DHT22;8466;52.286;21.124;2023-06-24T11:43:54;26.10;88.50
16700;DHT22;8466;52.286;21.124;2023-06-24T11:46:26;25.90;88.80
16700;DHT22;8466;52.286;21.124;2023-06-24T11:49:03;25.70;89.80
16700;DHT22;8466;52.286;21.124;2023-06-24T11:51:32;25.60;89.20
16700;DHT22;8466;52.286;21.124;2023-06-24T11:54:02;25.50;89.80
16700;DHT22;8466;52.286;21.124;2023-06-24T11:56:35;25.40;90.20
16700;DHT22;8466;52.286;21.124;2023-06-24T11:59:05;25.40;90.00
16700;DHT22;8466;52.286;21.124;2023-06-24T12:01:35;25.40;89.90
16700;DHT22;8466;52.286;21.124;2023-06-24T12:04:10;25.40;88.60
16700;DHT22;8466;52.286;21.124;2023-06-24T12:06:39;25.30;90.00
16700;DHT22;8466;52.286;21.124;2023-06-24T12:09:10;25.30;90.20
16700;DHT22;8466;52.286;21.124;2023-06-24T12:11:40;25.30;90.60
16700;DHT22;8466;52.286;21.124;2023-06-24T12:14:08;25.30;90.50
16700;DHT22;8466;52.286;21.124;2023-06-24T12:16:39;25.40;90.50
16700;DHT22;8466;52.286;21.124;2023-06-24T12:19:08;25.40;90.40
16700;DHT22;8466;52.286;21.124;2023-06-24T12:21:42;25.50;90.60
16700;DHT22;8466;52.286;21.124;2023-06-24T12:24:11;25.60;90.70
16700;DHT22;8466;52.286;21.124;2023-06-24T12:26:41;25.80;90.90
16700;DHT22;8466;52.286;21.124;2023-06-24T12:29:10;25.80;90.30
16700;DHT22;8466;52.286;21.124;2023-06-24T12:31:41;25.80;90.20
16700;DHT22;8466;52.286;21.124;2023-06-24T12:34:10;25.90;90.40
16700;DHT22;8466;52.286;21.124;2023-06-24T12:36:39;26.00;89.80
16700;DHT22;8466;52.286;21.124;2023-06-24T12:39:07;26.00;90.00
16700;DHT22;8466;52.286;21.124;2023-06-24T12:41:36;25.90;89.50
16700;DHT22;8466;52.286;21.124;2023-06-24T12:44:05;25.90;89.60
16700;DHT22;8466;52.286;21.124;2023-06-24T12:46:34;25.70;89.30
16700;DHT22;8466;52.286;21.124;2023-06-24T12:49:04;25.60;88.90
16700;DHT22;8466;52.286;21.124;2023-06-24T12:51:34;25.40;89.20
16700;DHT22;8466;52.286;21.124;2023-06-24T12:54:03;25.30;89.50
16700;DHT22;8466;52.286;21.124;2023-06-24T12:56:31;25.20;88.80
16700;DHT22;8466;52.286;21.124;2023-06-24T12:59:00;24.90;88.90
16700;DHT22;8466;52.286;21.124;2023-06-24T13:01:29;25.30;90.00
16700;DHT22;8466;52.286;21.124;2023-06-24T13:03:58;25.30;90.30
16700;DHT22;8466;52.286;21.124;2023-06-24T13:06:30;25.40;90.30
16700;DHT22;8466;52.286;21.124;2023-06-24T13:08:59;25.60;90.00
16700;DHT22;8466;52.286;21.124;2023-06-24T13:11:28;25.60;89.70
16700;DHT22;8466;52.286;21.124;2023-06-24T13:13:57;25.70;89.00
16700;DHT22;8466;52.286;21.124;2023-06-24T13:16:26;25.80;89.00
16700;DHT22;8466;52.286;21.124;2023-06-24T13:18:55;25.90;88.20
16700;DHT22;8466;52.286;21.124;2023-06-24T13:21:24;25.90;87.80
16700;DHT22;8466;52.286;21.124;2023-06-24T13:23:55;26.00;88.30
16700;DHT22;8466;52.286;21.124;2023-06-24T13:26:27;26.20;89.10
16700;DHT22;8466;52.286;21.124;2023-06-24T13:28:55;26.40;87.30
16700;DHT22;8466;52.286;21.124;2023-06-24T13:31:24;26.40;87.10
16700;DHT22;8466;52.286;21.124;2023-06-24T13:33:53;26.30;87.70
16700;DHT22;8466;52.286;21.124;2023-06-24T13:36:33;26.30;88.30
16700;DHT22;8466;52.286;21.124;2023-06-24T13:39:05;26.50;88.30
16700;DHT22;8466;52.286;21.124;2023-06-24T13:41:35;26.70;86.60
16700;DHT22;8466;52.286;21.124;2023-06-24T13:44:04;26.80;86.10
16700;DHT22;8466;52.286;21.124;2023-06-24T13:46:35;26.90;86.50
16700;DHT22;8466;52.286;21.124;2023-06-24T13:49:06;26.90;85.50
16700;DHT22;8466;52.286;21.124;2023-06-24T13:51:35;26.90;85.10
16700;DHT22;8466;52.286;21.124;2023-06-24T13:54:05;26.70;85.50
16700;DHT22;8466;52.286;21.124;2023-06-24T13:56:34;26.50;85.80
16700;DHT22;8466;52.286;21.124;2023-06-24T13:59:03;26.30;86.20
16700;DHT22;8466;52.286;21.124;2023-06-24T14:01:32;26.20;87.20
16700;DHT22;8466;52.286;21.124;2023-06-24T14:04:01;26.10;88.60
16700;DHT22;8466;52.286;21.124;2023-06-24T14:06:30;26.00;88.80
16700;DHT22;8466;52.286;21.124;2023-06-24T14:08:59;25.90;87.90
16700;DHT22;8466;52.286;21.124;2023-06-24T14:11:30;25.90;87.40
16700;DHT22;8466;52.286;21.124;2023-06-24T14:13:59;25.70;88.30
16700;DHT22;8466;52.286;21.124;2023-06-24T14:16:28;25.60;89.30
16700;DHT22;8466;52.286;21.124;2023-06-24T14:18:57;25.50;88.90
16700;DHT22;8466;52.286;21.124;2023-06-24T14:21:26;25.30;87.60
16700;DHT22;8466;52.286;21.124;2023-06-24T14:24:10;25.10;88.00
16700;DHT22;8466;52.286;21.124;2023-06-24T14:26:44;24.90;89.10
16700;DHT22;8466;52.286;21.124;2023-06-24T14:29:16;24.70;89.60
16700;DHT22;8466;52.286;21.124;2023-06-24T14:31:45;24.60;90.50
16700;DHT22;8466;52.286;21.124;2023-06-24T14:34:14;24.60;90.20
16700;DHT22;8466;52.286;21.124;2023-06-24T14:36:43;24.60;89.90
16700;DHT22;8466;52.286;21.124;2023-06-24T14:39:14;24.50;90.50
16700;DHT22;8466;52.286;21.124;2023-06-24T14:41:45;24.40;90.40
16700;DHT22;8466;52.286;21.124;2023-06-24T14:44:14;24.30;90.90
16700;DHT22;8466;52.286;21.124;2023-06-24T14:46:43;24.10;91.00
16700;DHT22;8466;52.286;21.124;2023-06-24T14:49:11;24.10;91.30
16700;DHT22;8466;52.286;21.124;2023-06-24T14:51:40;24.00;91.30
16700;DHT22;8466;52.286;21.124;2023-06-24T14:54:09;24.00;91.20
16700;DHT22;8466;52.286;21.124;2023-06-24T14:56:38;23.90;91.50
16700;DHT22;8466;52.286;21.124;2023-06-24T14:59:08;23.90;92.40
16700;DHT22;8466;52.286;21.124;2023-06-24T15:01:38;23.80;91.90
16700;DHT22;8466;52.286;21.124;2023-06-24T15:04:07;23.80;92.90
16700;DHT22;8466;52.286;21.124;2023-06-24T15:06:36;23.90;93.90
16700;DHT22;8466;52.286;21.124;2023-06-24T15:09:05;23.90;93.20
16700;DHT22;8466;52.286;21.124;2023-06-24T15:11:34;23.80;93.00
16700;DHT22;8466;52.286;21.124;2023-06-24T15:14:03;23.80;92.40
16700;DHT22;8466;52.286;21.124;2023-06-24T15:16:34;23.80;92.80
16700;DHT22;8466;52.286;21.124;2023-06-24T15:19:02;23.80;93.10
16700;DHT22;8466;52.286;21.124;2023-06-24T15:21:32;23.70;93.10
16700;DHT22;8466;52.286;21.124;2023-06-24T15:24:04;23.60;93.30
16700;DHT22;8466;52.286;21.124;2023-06-24T15:26:33;23.50;93.80
16700;DHT22;8466;52.286;21.124;2023-06-24T15:29:02;23.40;94.40
16700;DHT22;8466;52.286;21.124;2023-06-24T15:31:34;23.20;94.80
16700;DHT22;8466;52.286;21.124;2023-06-24T15:34:03;23.10;95.40
16700;DHT22;8466;52.286;21.124;2023-06-24T15:36:32;22.90;96.20
16700;DHT22;8466;52.286;21.124;2023-06-24T15:39:01;22.70;96.80
16700;DHT22;8466;52.286;21.124;2023-06-24T15:41:30;22.60;97.30
16700;DHT22;8466;52.286;21.124;2023-06-24T15:43:59;22.50;97.70
16700;DHT22;8466;52.286;21.124;2023-06-24T15:46:28;22.30;98.00
16700;DHT22;8466;52.286;21.124;2023-06-24T15:48:58;22.20;98.30
16700;DHT22;8466;52.286;21.124;2023-06-24T15:51:27;22.10;98.60
16700;DHT22;8466;52.286;21.124;2023-06-24T15:53:56;22.10;98.50
16700;DHT22;8466;52.286;21.124;2023-06-24T15:56:27;22.10;98.60